Camden, MI (49232)

8:57 AM EST on December 03, 2016 (GMT -0500)
Merry Lake | | Change Station

Elev 915 ft 41.71 °N, 84.56 °W | Updated 26 seconds ago

Overcast
Overcast
34.5 °F
Feels Like 31 °F
N
4.0
Wind Variable Wind from West

Today
High -- | Low -- °F
--% Chance of Precip.
Yesterday
High -- | Low -- °F
Precip. -- in
Pressure 30.30 in
Visibility 10.0 miles
Clouds Overcast 2100 ft
Windchill 31 °F
Dew Point 34 °F
Humidity 98%
Rainfall 0.00 in
Snow Depth Not available.
7:49 AM 5:08 PM
Waxing Crescent, 15% visible
METAR KJYM 031355Z AUTO 28004KT 10SM OVC021 00/M01 A3030 RMK AO2
Pressure 30.30 in
Visibility 10.0 miles
Clouds Overcast 2100 ft
Windchill 31 °F
Dew Point 34 °F
Humidity 98%
Rainfall 0.00 in
Snow Depth Not available.
7:49 AM 5:08 PM
Waxing Crescent, 15% visible
METAR KJYM 031355Z AUTO 28004KT 10SM OVC021 00/M01 A3030 RMK AO2

10-Day Weather Forecast

Almanac

Astronomy

Dec. 03, 2016 Rise Set
Actual Time
Civil Twilight
Nautical Twilight
Astronomical Twilight
Moon
Length of Visible Light
Length of Day
Tomorrow will be .
, % of the Moon is Illuminated

Today's Extremes

State Highs State Lows

Community

WunderPhotos

Upload Photos

1,955,446 photos uploaded!

WunderBlog® & News

Nearby

Air Quality

  Air Quality AQ Index Pollutant
Not available.

Snow Depth

Station Depth Elevation

Earthquake Activity

City Distance Mag. Time & Date
Minimum magnitude displayed is 2.5.

Coastal Water Temperatures

Place Temperature

Stations

Nearby Weather Stations

Station Location Temp. Windchill Dew Point Humidity Wind Precip. Elev Updated Type
                   

Watches & Warnings

There are currently no watches in effect.